Fairmont, WV

4:09 PM EDT on September 23, 2014 (GMT -0400)
N8TJD's WX Station. Stony Rd/Pinchgut Hollow. | Change Station
CLOSE
Current Station
Personal Weather Station
Location: Fairmont, WV
Elevation: 1283 ft
Nearby Weather Stations

Elev 1283 ft 39.46 °N, 80.12 °W | Updated 12 seconds ago

Clear
Clear
67.9 °F
Feels Like 67.9 °F
N
0.0
Wind Variable Wind from NE
Gusts 0.0 mph

Today
High -- | Low -- °F
--% Chance of Precip.
Yesterday
High -- | Low -- °F
Precip. -- in
7:09 AM 7:15 PM
Waning Crescent, 0% visible
Pressure 30.30 in
Visibility 10.0 miles
Clouds Clear
Dew Point 38 °F
Humidity 34%
Rainfall 0.00 in
Snow Depth Not available.
UV 4 out of 12
Pollen 3.10 out of 12
Air Quality Not available.
Flu Activity Not available.
METAR KCKB 231953Z 32004KT 10SM CLR 20/09 A3032 RMK AO2 SLP261 T02000089

More Conditions Fewer Conditions

Pressure 30.30 in
Visibility 10.0 miles
Clouds Clear
Dew Point 38 °F
Humidity 34%
Rainfall 0.00 in
Snow Depth Not available.
UV 4 out of 12
Pollen 3.10 out of 12
Air Quality Not available.
Flu Activity Not available.
METAR KCKB 231953Z 32004KT 10SM CLR 20/09 A3032 RMK AO2 SLP261 T02000089

More Conditions Fewer Conditions

10-Day Weather Forecast

Almanac

Astronomy

Sep. 23, 2014 Rise Set
Actual Time 7:09 AM EDT 7:15 PM EDT
Civil Twilight 6:42 AM EDT 7:42 PM EDT
Nautical Twilight 6:10 AM EDT 8:13 PM EDT
Astronomical Twilight 5:38 AM EDT 8:45 PM EDT
Moon 6:31 AM EDT 6:54 PM EDT
Length of Visible Light 13h 00m
Length of Day
12h 06m
Tomorrow will be 2m 33s shorter.
Waning Crescent, 0% of the Moon is Illuminated
Today
Waning Crescent
Sep 24
New
Oct 1
First Quarter
Oct 8
Full
Oct 15
Last Quarter

Today's Extremes

State Highs State Lows

Community

WunderPhotos

Upload Photos

1,755,784 photos uploaded!

WunderBlogs® & News

By Dr. Jeff Masters
Director of Meteorology, Weather Underground
By Kari Strenfel
Meteorologist, Weather Underground
By Christopher C. Burt
Weather Historian, Weather Underground
September 23, 2014
September 23, 2014
September 23, 2014

Nearby

Snow Depth

Station Depth Elevation
No new snow has been reported.

Earthquake Activity

City Distance Mag. Time & Date
No recent earthquake activity has been reported nearby.
Minimum magnitude displayed is 2.5.

Coastal Water Temperatures

Place Temperature
No Stations Reporting

Nearby Weather Stations